• Join FlightAware (Why Join?)
  • Login
  • US Flag 
02:51AM EDT


 

Airport Tracker/Info


-or-


 

Live Flight TrackerFlight Track Log ✈ UAL3746 ✈ 30-Apr-2013 ✈ KMHT - KORD

Flight Track Log - Related Links

Times and Time Zones

All times are in EDT time to prevent confusion due to time zone crossing. See the UAL3746 flight status page for this flight to view local times or setup timezone preferences in your user account.

Time Position Orientation Groundspeed Altitude Reporting Facility
EDT Latitude Longitude Course Direction KTS MPH feet Rate Location/Type
05:34PM 42.8833 -71.4500 216° Southwest 199 229 2,200  Level KA90
05:35PM 42.8361 -71.4972 216° Southwest 219 252 4,400 2,700 Climbing Boston Center
05:36PM 42.9453 -71.8578 279° West  Level FlightAware Approximate
05:36PM 42.8911 -71.5672 317° Northwest 195 224 7,700  Level Boston Center
05:37PM 42.9500 -72.0003 270° West  Level FlightAware Approximate
05:37PM 42.9497 -71.6317 321° Northwest 232 267 10,000  Level Boston Center
05:38PM 42.9501 -72.1432 270° West  Level FlightAware Approximate
05:38PM 43.0044 -71.7133 313° West 284 327 13,000  Level Boston Center
05:39PM 43.0136 -71.8239 277° West 277 319 15,400 2,400 Climbing Boston Center
05:40PM 43.0183 -71.9431 273° West 306 352 17,800 2,100 Climbing Boston Center
05:41PM 43.0250 -72.0653 274° West 326 375 19,700 1,800 Climbing Boston Center
05:42PM 43.0317 -72.1958 274° West 333 383 21,500 1,800 Climbing Boston Center
05:43PM 43.0464 -72.3094 280° West 338 389 23,300 1,800 Climbing Boston Center
05:44PM 43.0486 -72.4428 271° West 344 396 25,100 1,560 Climbing Boston Center
05:45PM 43.0567 -72.5794 275° West 356 410 26,500 1,440 Climbing Boston Center
05:46PM 43.0567 -72.7214 270° West 367 422 28,000 720 Climbing Boston Center
05:47PM 43.0622 -72.8750 273° West 388 447 28,000  Level Boston Center
05:48PM 43.0739 -73.0597 275° West 419 482 28,000 180 Level Boston Center
05:49PM 43.0831 -73.2672 274° West 450 518 28,400 1,140 Climbing Boston Center
05:50PM 43.0839 -73.4378 270° West 457 526 30,300 1,680 Climbing Boston Center
05:51PM 43.0906 -73.5972 273° West 451 519 31,800 1,500 Climbing Boston Center
05:52PM 43.0972 -73.7539 273° West 432 497 33,400 1,200 Climbing Boston Center
05:53PM 43.1017 -73.9131 272° West 422 486 34,200 900 Climbing Boston Center
05:54PM 43.1078 -74.0697 273° West 422 486 35,200 840 Climbing Boston Center
05:55PM 43.1139 -74.2261 273° West 422 486 35,900 360 Climbing Boston Center
05:56PM 43.1175 -74.3856 272° West 422 486 36,000  Climbing Boston Center
05:57PM 43.1247 -74.5594 273° West 434 499 36,000  Level Boston Center
05:58PM 43.1297 -74.7331 272° West 451 519 36,000  Level Boston Center
05:59PM 43.1322 -74.9069 271° West 464 534 36,000  Level Boston Center
06:00PM 43.1375 -75.0494 273° West 464 534 36,000  Level Boston Center
06:01PM 43.1408 -75.2631 271° West 464 534 36,000  Level Boston Center
06:02PM 43.1453 -75.4169 272° West 464 534 36,000  Level Boston Center
06:03PM 43.1500 -75.6250 272° West 459 528 36,000  Level Boston Center
06:04PM 43.1533 -75.7986 272° West 459 528 36,000  Level Boston Center
06:05PM 43.1586 -75.9669 273° West 459 528 36,000  Level Boston Center
06:07PM 43.1608 -76.2536 271° West 459 528 36,000  Level Cleveland Center
06:08PM 43.1608 -76.4275 270° West 459 528 36,000  Level Cleveland Center
06:09PM 43.1606 -76.5983 270° West 459 528 36,000  Level Cleveland Center
06:10PM 43.1597 -76.7522 270° West 459 528 36,000  Level Cleveland Center
06:11PM 43.1589 -76.9231 270° West 459 528 36,000  Level Cleveland Center
06:12PM 43.1581 -77.0967 270° West 459 528 36,000  Level Cleveland Center
06:13PM 43.1567 -77.2675 269° West 459 528 36,000  Level Cleveland Center
06:14PM 43.1572 -77.4356 270° West 459 528 36,000  Level Cleveland Center
06:15PM 43.1556 -77.6092 269° West 459 528 36,000  Level Cleveland Center
06:16PM 43.1514 -77.7744 268° West 459 528 36,000  Level Cleveland Center
06:17PM 43.1514 -77.9453 270° West 454 522 36,000  Level Cleveland Center
06:18PM 43.1467 -78.1161 268° West 454 522 36,000  Level Cleveland Center
06:19PM 43.1439 -78.2842 269° West 454 522 36,000  Level Cleveland Center
06:20PM 43.1408 -78.4522 269° West 449 517 36,000  Level Cleveland Center
06:21PM 43.1378 -78.6400 269° West 454 522 36,000  Level Cleveland Center
06:22PM 43.1322 -78.8053 267° West 449 517 36,000  Level Cleveland Center
06:23PM 43.1264 -78.9733 267° West 449 517 36,000  Level Cleveland Center
06:24PM 43.1167 -79.1000 264° West 440 506 36,000  Level Toronto Center
06:25PM 43.1000 -79.2667 262° West 440 506 36,000  Level Toronto Center
06:26PM 43.1000 -79.4333 270° West 440 506 36,000  Level Toronto Center
06:27PM 43.1000 -79.5833 270° West 440 506 36,000  Level Toronto Center
06:28PM 43.0833 -79.7667 263° West 440 506 36,000  Level Toronto Center
06:29PM 43.0833 -79.9333 270° West 440 506 36,000  Level Toronto Center
06:30PM 43.0833 -80.1167 270° West 440 506 36,000  Level Toronto Center
06:31PM 43.0667 -80.2667 261° West 440 506 36,000  Level Toronto Center
06:32PM 43.0667 -80.4333 270° West 440 506 36,000  Level Toronto Center
06:33PM 43.0500 -80.5833 261° West 440 506 36,000  Level Toronto Center
06:34PM 43.0500 -80.7667 270° West 440 506 36,000  Level Toronto Center
06:35PM 43.0333 -80.9333 262° West 440 506 36,000  Level Toronto Center
06:36PM 43.0167 -81.1167 263° West 440 506 36,000  Level Toronto Center
06:37PM 43.0167 -81.2667 270° West 440 506 36,000  Level Toronto Center
06:38PM 43.0167 -81.4333 270° West 440 506 36,000  Level Toronto Center
06:39PM 43.0167 -81.6167 270° West 450 518 36,000  Level Toronto Center
06:40PM 43.0167 -81.7833 270° West 440 506 36,000  Level Toronto Center
06:41PM 43.0000 -81.9333 261° West 440 506 36,000  Level Toronto Center
06:42PM 43.0000 -82.1167 270° West 440 506 36,000  Level Toronto Center
06:43PM 43.0000 -82.2833 270° West 440 506 36,000  Level Toronto Center
06:44PM 43.0000 -82.4333 270° West 440 506 36,000  Level Toronto Center
06:45PM 43.0000 -82.6167 270° West 440 506 36,000 -120 Level Toronto Center
06:45PM 43.0019 -82.6669 273° West 443 510 35,900 -1,140 Descending Cleveland Center
06:46PM 42.9969 -82.8286 268° West 438 504 34,500 -960 Descending Cleveland Center
06:47PM 42.9936 -82.9875 268° West 432 497 34,000 -300 Descending Cleveland Center
06:48PM 42.9883 -83.1378 267° West 416 479 34,000 -600 Level Cleveland Center
06:49PM 42.9828 -83.2936 267° West 410 472 32,900 -1,020 Descending Cleveland Center
06:50PM 42.9789 -83.4522 268° West 410 472 32,000 -480 Descending Cleveland Center
06:51PM 42.9728 -83.6081 267° West 415 478 32,000  Level Cleveland Center
06:52PM 42.9644 -83.7639 266° West 415 478 32,000  Level Cleveland Center
06:53PM 42.9497 -83.9219 263° West 420 483 32,000  Level Cleveland Center
06:54PM 42.9344 -84.0800 263° West 420 483 32,000  Level Cleveland Center
06:55PM 42.9192 -84.2408 263° West 426 490 32,000  Level Cleveland Center
06:56PM 42.9014 -84.4014 261° West 426 490 32,000  Level Cleveland Center
06:57PM 42.8831 -84.5961 263° West 435 501 32,000  Level Chicago Center
06:58PM 42.8661 -84.7603 262° West 438 504 32,000  Level Chicago Center
06:59PM 42.8450 -84.9558 262° West 435 501 32,000  Level Chicago Center
07:00PM 42.8281 -85.1167 262° West 431 496 32,000  Level Chicago Center
07:01PM 42.8106 -85.2775 262° West 429 494 32,000 -1,020 Level Chicago Center
07:02PM 42.7931 -85.4367 262° West 427 491 30,000 -1,980 Descending Chicago Center
07:03PM 42.7697 -85.5914 258° West 417 480 28,000 -1,980 Descending Chicago Center
07:04PM 42.7425 -85.7411 256° West 408 470 26,000 -1,980 Descending Chicago Center
07:05PM 42.7167 -85.8869 256° West 399 459 24,000 -1,860 Descending Chicago Center
07:06PM 42.6883 -86.0397 256° West 407 468 22,200 -1,980 Descending Chicago Center
07:07PM 42.6536 -86.2297 256° West 426 490 20,000 -1,500 Descending Chicago Center
07:08PM 42.6258 -86.3731 255° West 395 455 19,100 -1,320 Descending Chicago Center
07:10PM 42.5986 -86.5169 256° West 391 450 17,300 -1,800 Descending Chicago Center
07:11PM 42.5731 -86.6561 256° West 382 440 15,500 -1,800 Descending Chicago Center
07:12PM 42.5458 -86.7883 254° West 368 423 13,700 -1,800 Descending Chicago Center
07:13PM 42.5125 -86.9108 250° West 356 410 11,900 -1,620 Descending Chicago Center
07:14PM 42.4728 -87.0453 248° West 323 372 10,400 -1,260 Descending Chicago Center
07:15PM 42.4486 -87.1353 250° West 261 300 9,300 -720 Descending Chicago Center
07:16PM 42.4247 -87.2219 250° West 249 287 9,000 -180 Descending Chicago Center
07:17PM 42.3994 -87.3119 249° West 257 296 9,000  Level Chicago Center
07:18PM 42.3728 -87.4011 248° West 255 293 9,000 -600 Level Chicago Center
07:19PM 42.3519 -87.4719 248° West 214 246 7,800 -1,020 Descending Chicago Center
07:20PM 42.3108 -87.5467 233° Southwest 213 245 7,000 -420 Descending Chicago Center
07:21PM 42.2669 -87.5969 220° Southwest 212 244 7,000 -300 Level Chicago Center
07:22PM 42.2225 -87.6444 218° Southwest 208 239 6,400 -900 Descending Chicago Center
07:23PM 42.1792 -87.6950 221° Southwest 207 238 5,200 -1,140 Descending Chicago Center
07:24PM 42.1408 -87.7375 219° Southwest 187 215 4,100 -1,020 Descending Chicago Center
07:25PM 42.0992 -87.7881 222° Southwest 174 200 3,200 -900 Descending Chicago Center
07:26PM 42.0667 -87.8167 213° Southwest 166 191 2,300 -960 Descending Chicago TRACON